createdAt,value
2022-12-26T00:02:52.754Z,19.23
2022-12-26T00:07:55.567Z,18.63
2022-12-26T00:13:39.953Z,17.80
2022-12-26T00:18:21.005Z,16.53
2022-12-26T00:23:24.003Z,16.77
2022-12-26T00:28:27.370Z,17.58
2022-12-26T00:33:31.272Z,20.63
2022-12-26T00:38:35.716Z,20.38
2022-12-26T00:43:38.612Z,17.73
2022-12-26T00:48:41.367Z,20.73
2022-12-26T00:53:44.254Z,19.13
2022-12-26T00:58:46.906Z,20.23
2022-12-26T01:03:51.094Z,20.70
2022-12-26T01:08:54.268Z,18.37
2022-12-26T01:13:57.409Z,18.95
2022-12-26T01:19:00.121Z,19.75
2022-12-26T01:24:08.805Z,18.23
2022-12-26T01:29:12.369Z,18.00
2022-12-26T01:34:14.990Z,16.20
2022-12-26T01:39:17.687Z,15.18
2022-12-26T01:44:57.882Z,17.30
2022-12-26T01:50:00.583Z,15.73
2022-12-26T01:55:06.026Z,18.75
2022-12-26T02:00:10.111Z,17.27
2022-12-26T02:05:37.047Z,17.60
2022-12-26T02:10:52.194Z,17.23
2022-12-26T02:15:54.851Z,18.17
2022-12-26T02:21:13.024Z,18.50
2022-12-26T02:26:34.481Z,19.67
2022-12-26T02:32:08.752Z,17.67
2022-12-26T02:37:38.459Z,15.88
2022-12-26T02:42:53.039Z,18.73
2022-12-26T02:48:22.766Z,18.38
2022-12-26T02:53:49.875Z,15.93
2022-12-26T02:59:55.738Z,15.25
2022-12-26T03:05:06.806Z,18.65
2022-12-26T03:10:39.465Z,16.77
2022-12-26T03:16:23.259Z,17.83
2022-12-26T03:21:30.820Z,15.90
2022-12-26T03:26:41.472Z,13.80
2022-12-26T03:31:44.078Z,11.32
2022-12-26T03:36:59.228Z,11.87
2022-12-26T03:42:31.645Z,15.05
2022-12-26T03:48:05.025Z,13.33
2022-12-26T03:53:50.228Z,13.40
2022-12-26T03:59:37.303Z,13.63
2022-12-26T04:05:03.127Z,14.40
2022-12-26T04:10:37.751Z,15.73
2022-12-26T04:16:04.245Z,15.30
2022-12-26T04:21:41.298Z,14.50
2022-12-26T04:27:09.324Z,14.70
2022-12-26T04:32:36.755Z,14.87
2022-12-26T04:38:03.188Z,12.82
2022-12-26T04:43:50.391Z,12.87
2022-12-26T04:49:11.704Z,13.43
2022-12-26T04:54:14.493Z,12.98
2022-12-26T04:59:17.938Z,12.53
2022-12-26T05:04:39.556Z,11.82
2022-12-26T05:09:42.560Z,12.43
2022-12-26T05:14:45.106Z,11.55
2022-12-26T05:20:06.016Z,14.15
2022-12-26T05:25:58.768Z,12.73
2022-12-26T05:31:02.451Z,13.43
2022-12-26T05:36:05.560Z,12.70
2022-12-26T05:41:08.196Z,11.90
2022-12-26T05:46:11.246Z,12.32
2022-12-26T05:51:14.509Z,13.43
2022-12-26T05:56:18.419Z,14.60
2022-12-26T06:01:22.107Z,15.03
2022-12-26T06:06:26.044Z,15.52
2022-12-26T06:11:29.466Z,13.75
2022-12-26T06:16:32.427Z,14.57
2022-12-26T06:21:35.300Z,15.45
2022-12-26T06:26:38.108Z,15.70
2022-12-26T06:31:40.851Z,20.17
2022-12-26T06:36:43.589Z,18.15
2022-12-26T06:41:46.367Z,16.13
2022-12-26T06:46:49.204Z,18.33
2022-12-26T06:51:52.306Z,17.93
2022-12-26T06:56:55.083Z,16.63
2022-12-26T07:01:58.023Z,17.25
2022-12-26T07:07:00.700Z,17.17
2022-12-26T07:12:03.851Z,17.10
2022-12-26T07:17:06.702Z,12.80
2022-12-26T07:22:09.463Z,11.93
2022-12-26T07:27:12.194Z,12.68
2022-12-26T07:32:15.203Z,10.07
2022-12-26T07:37:18.072Z,10.00
2022-12-26T07:42:21.139Z,9.97
2022-12-26T07:47:24.105Z,8.25
2022-12-26T07:52:27.506Z,6.32
2022-12-26T07:57:48.252Z,8.83
2022-12-26T08:02:53.725Z,10.50
2022-12-26T08:07:56.874Z,9.20
2022-12-26T08:12:59.684Z,10.63
2022-12-26T08:18:02.641Z,12.32
2022-12-26T08:23:05.471Z,15.00
2022-12-26T08:28:08.424Z,15.82
2022-12-26T08:33:11.909Z,14.63
2022-12-26T08:38:14.666Z,18.95
2022-12-26T08:48:42.588Z,21.07
2022-12-26T08:53:49.951Z,25.23
2022-12-26T08:58:53.068Z,23.90
2022-12-26T09:03:58.167Z,22.90
2022-12-26T09:09:01.434Z,20.42
2022-12-26T09:14:05.176Z,20.83
2022-12-26T09:19:09.601Z,22.25
2022-12-26T09:24:16.137Z,21.47
2022-12-26T09:29:18.962Z,22.13
2022-12-26T09:34:21.985Z,23.77
2022-12-26T09:39:24.770Z,16.93
2022-12-26T09:44:50.685Z,22.33
2022-12-26T09:50:08.724Z,21.27
2022-12-26T09:55:36.235Z,19.70
2022-12-26T10:00:56.385Z,19.17
2022-12-26T10:06:10.171Z,17.33
2022-12-26T10:11:37.882Z,13.63
2022-12-26T10:17:19.657Z,14.70
2022-12-26T10:22:43.643Z,13.02
2022-12-26T10:27:49.877Z,13.48
2022-12-26T10:32:59.611Z,14.07
2022-12-26T10:38:14.203Z,14.52
2022-12-26T10:43:34.427Z,17.03
2022-12-26T10:48:37.103Z,16.05
2022-12-26T10:53:44.032Z,18.50
2022-12-26T10:58:59.293Z,16.93
2022-12-26T11:05:01.916Z,14.93
2022-12-26T11:09:56.499Z,15.87
2022-12-26T11:15:04.169Z,7.68
2022-12-26T11:20:28.347Z,10.88
2022-12-26T11:25:35.329Z,6.17
2022-12-26T11:30:40.465Z,6.43
2022-12-26T11:35:51.862Z,9.87
2022-12-26T11:41:13.044Z,5.78
2022-12-26T11:46:16.723Z,4.53
2022-12-26T11:51:38.432Z,7.17
2022-12-26T11:56:41.172Z,5.03
2022-12-26T12:01:44.607Z,4.90
2022-12-26T12:07:01.261Z,4.25
2022-12-26T12:12:28.492Z,3.97
2022-12-26T12:17:52.818Z,2.97
2022-12-26T12:23:25.485Z,4.28
2022-12-26T12:28:54.220Z,3.70
2022-12-26T12:34:18.554Z,3.10
2022-12-26T12:39:41.918Z,3.50
2022-12-26T12:44:59.701Z,3.53
2022-12-26T12:50:08.307Z,3.85
2022-12-26T12:55:47.851Z,3.70
2022-12-26T13:01:02.636Z,3.50
2022-12-26T13:06:07.291Z,3.10
2022-12-26T13:11:10.040Z,2.73
2022-12-26T13:16:20.114Z,3.40
2022-12-26T13:21:23.625Z,2.90
2022-12-26T13:26:36.162Z,2.70
2022-12-26T13:31:40.771Z,3.05
2022-12-26T13:36:53.308Z,3.20
2022-12-26T13:42:23.336Z,2.63
2022-12-26T13:47:37.720Z,3.10
2022-12-26T13:52:42.107Z,2.90
2022-12-26T13:57:45.974Z,3.40
2022-12-26T14:03:23.027Z,2.80
2022-12-26T14:08:55.362Z,3.28
2022-12-26T14:14:27.478Z,3.30
2022-12-26T14:19:33.302Z,2.42
2022-12-26T14:24:46.557Z,3.47
2022-12-26T14:30:19.477Z,3.53
2022-12-26T14:35:41.605Z,3.78
2022-12-26T14:41:07.629Z,3.47
2022-12-26T14:46:30.908Z,4.07
2022-12-26T14:51:37.929Z,4.15
2022-12-26T14:56:40.796Z,5.10
2022-12-26T15:01:48.707Z,5.97
2022-12-26T15:07:00.510Z,12.57
2022-12-26T15:12:59.201Z,13.57
2022-12-26T15:18:07.835Z,13.90
2022-12-26T15:23:26.006Z,14.00
2022-12-26T15:28:28.644Z,15.30
2022-12-26T15:33:50.008Z,16.47
2022-12-26T15:39:08.871Z,17.67
2022-12-26T15:44:42.850Z,15.60
2022-12-26T15:50:16.527Z,15.40
2022-12-26T15:55:43.527Z,16.90
2022-12-26T16:00:52.472Z,17.13
2022-12-26T16:06:13.765Z,16.10
2022-12-26T16:11:24.109Z,15.48
2022-12-26T16:16:32.519Z,17.40
2022-12-26T16:21:53.692Z,17.05
2022-12-26T16:27:02.310Z,15.30
2022-12-26T16:32:06.971Z,14.98
2022-12-26T16:37:15.917Z,11.90
2022-12-26T16:42:32.370Z,8.13
2022-12-26T16:47:35.296Z,6.35
2022-12-26T16:52:45.848Z,2.83
2022-12-26T16:57:53.157Z,4.78
2022-12-26T17:02:58.731Z,4.47
2022-12-26T17:08:03.477Z,4.60
2022-12-26T17:13:10.204Z,4.40
2022-12-26T17:18:53.059Z,4.30
2022-12-26T17:24:23.706Z,5.93
2022-12-26T17:29:45.734Z,6.18
2022-12-26T17:34:48.881Z,5.33
2022-12-26T17:39:59.061Z,5.82
2022-12-26T17:45:05.907Z,4.83
2022-12-26T17:50:08.916Z,3.55
2022-12-26T17:55:18.537Z,5.28
2022-12-26T18:00:27.140Z,4.40
2022-12-26T18:05:30.146Z,4.22
2022-12-26T18:10:37.305Z,3.33
2022-12-26T18:15:40.083Z,4.32
2022-12-26T18:20:42.858Z,3.85
2022-12-26T18:25:50.221Z,3.77
2022-12-26T18:30:57.317Z,3.10
2022-12-26T18:36:05.796Z,2.10
2022-12-26T18:41:20.196Z,3.67
2022-12-26T18:46:25.623Z,4.25
2022-12-26T18:51:28.516Z,3.93
2022-12-26T18:56:31.366Z,4.47
2022-12-26T19:01:34.268Z,3.70
2022-12-26T19:06:38.216Z,4.38
2022-12-26T19:11:42.842Z,3.03
2022-12-26T19:16:45.849Z,4.07
2022-12-26T19:21:48.741Z,3.70
2022-12-26T19:26:51.536Z,3.97
2022-12-26T19:31:56.550Z,3.45
2022-12-26T19:36:59.326Z,4.38
2022-12-26T19:42:02.277Z,4.43
2022-12-26T19:47:12.453Z,4.82
2022-12-26T19:52:15.807Z,4.67
2022-12-26T19:57:18.737Z,4.05
2022-12-26T20:02:21.622Z,4.53
2022-12-26T20:07:24.571Z,4.30
2022-12-26T20:12:27.313Z,4.72
2022-12-26T20:17:30.166Z,4.23
2022-12-26T20:22:33.556Z,3.30
2022-12-26T20:27:36.960Z,3.60
2022-12-26T20:32:44.215Z,2.87
2022-12-26T20:37:46.977Z,3.20
2022-12-26T20:42:49.871Z,3.07
2022-12-26T20:47:52.639Z,3.25
2022-12-26T20:52:55.537Z,3.75
2022-12-26T20:57:58.222Z,3.47
2022-12-26T21:03:01.129Z,3.67
2022-12-26T21:08:03.983Z,3.07
2022-12-26T21:13:08.551Z,3.47
2022-12-26T21:18:11.351Z,3.55
2022-12-26T21:23:14.057Z,3.50
2022-12-26T21:28:16.728Z,3.80
2022-12-26T21:33:19.525Z,3.73
2022-12-26T21:38:23.565Z,3.28
2022-12-26T21:43:30.677Z,3.15
2022-12-26T21:48:33.476Z,3.10
2022-12-26T21:53:36.597Z,3.00
2022-12-26T21:58:58.137Z,3.10
2022-12-26T22:04:19.195Z,4.47
2022-12-26T22:09:21.955Z,5.70
2022-12-26T22:14:25.032Z,5.57
2022-12-26T22:19:27.855Z,4.95
2022-12-26T22:24:30.708Z,5.43
2022-12-26T22:29:33.524Z,4.18
2022-12-26T22:34:36.331Z,4.93
2022-12-26T22:39:39.195Z,4.97
2022-12-26T22:44:42.129Z,4.75
2022-12-26T22:49:44.947Z,5.33
2022-12-26T22:54:47.806Z,4.97
2022-12-26T23:00:08.294Z,5.50
2022-12-26T23:05:12.796Z,4.33
2022-12-26T23:10:21.131Z,4.53
2022-12-26T23:15:26.104Z,4.53
2022-12-26T23:20:53.907Z,4.47
2022-12-26T23:26:00.659Z,3.67
2022-12-26T23:31:06.410Z,4.20
2022-12-26T23:36:09.401Z,4.03
2022-12-26T23:41:12.146Z,2.47
2022-12-26T23:46:14.837Z,2.95
2022-12-26T23:51:17.634Z,2.55
2022-12-26T23:56:20.345Z,3.33
